»·PEaware :: FDX983 KCOS-KSLC

FDX983 :: KCOS-KSLC

FLIGHT INFORMATION

Flight Status: Arrived
Operator:
Federal Express
More flights by this operator :: More flights under this callsign
Pilot: Anonymous 15639 (15639)
Aircraft: BOEING 727-200
(B722)
More flights by this aircraft type
Origin: KCOS City Of Colorado Springs Mun
United States
Destination: KSLC Salt Lake City Intl
United States
More flights between these airports :: More routes between these airports
Route: +BRK V83 PUB J28 HBU JNC J12 HELPR SPANE7
File this flight plan on PilotEdge
Remarks:
Altitude:
(Current/Filed)
30,000ft
Speed:
(Current/Filed)
493kts
Departed: 20-Aug-18 12:42 PM
Arrived: 20-Aug-18 01:58 PM
Distance/Time
Traveled:
356nm/1:16
Distance/Time
To Go:
Arrived

Flight Plot

Page will automatically refresh every two minutes.

Flight plan parsing failed; only flown route is shown


Map Options




Map Legend


Flown Route
Filed Route
Departure Airport
Arrival Airport
Navaid (VOR, NDB)
Fix

Horizontal Profiles

Position Reports

Time Latitude Longitude Heading Altitude Ground
Speed
20-Aug-18 12:11 38.814159 -104.721239 270 6198ft 0kts
20-Aug-18 12:12 38.814159 -104.721239 270 6198ft 0kts
20-Aug-18 12:13 38.814159 -104.721239 270 6198ft 0kts
20-Aug-18 12:14 38.814159 -104.721239 270 6198ft 0kts
20-Aug-18 12:15 38.814159 -104.721239 270 6198ft 0kts
20-Aug-18 12:16 38.814159 -104.721239 270 6198ft 0kts
20-Aug-18 12:17 38.814159 -104.721239 270 6198ft 0kts
20-Aug-18 12:18 38.814159 -104.721239 270 6198ft 0kts
20-Aug-18 12:19 38.814159 -104.721239 270 6198ft 0kts
20-Aug-18 12:20 38.814159 -104.721239 270 6198ft 0kts
20-Aug-18 12:21 38.814159 -104.721239 270 6198ft 0kts
20-Aug-18 12:22 38.814159 -104.721239 270 6198ft 0kts
20-Aug-18 12:23 38.814159 -104.721239 270 6198ft 0kts
20-Aug-18 12:24 38.814159 -104.721239 270 6198ft 0kts
20-Aug-18 12:25 38.814159 -104.721239 270 6198ft 0kts
20-Aug-18 12:26 38.814159 -104.721239 270 6198ft 0kts
20-Aug-18 12:27 38.814159 -104.721239 270 6198ft 0kts
20-Aug-18 12:28 38.814159 -104.721239 270 6198ft 0kts
20-Aug-18 12:29 38.814159 -104.721239 270 6198ft 0kts
20-Aug-18 12:30 38.814159 -104.721239 270 6198ft 0kts
20-Aug-18 12:31 38.814159 -104.721239 270 6198ft 0kts
20-Aug-18 12:32 38.814159 -104.721239 270 6199ft 0kts
20-Aug-18 12:33 38.814165 -104.720828 247 6198ft 2kts
20-Aug-18 12:34 38.814478 -104.720604 178 6199ft 0kts
20-Aug-18 12:35 38.814477 -104.720604 178 6198ft 0kts
20-Aug-18 12:36 38.814477 -104.720604 178 6198ft 0kts
20-Aug-18 12:37 38.814265 -104.720598 178 6198ft 4kts
20-Aug-18 12:38 38.812679 -104.719689 110 6198ft 1kts
20-Aug-18 12:39 38.814317 -104.717318 358 6198ft 15kts
20-Aug-18 12:40 38.819383 -104.717334 359 6198ft 16kts
20-Aug-18 12:41 38.822005 -104.717296 11 6198ft 0kts
20-Aug-18 12:42 38.822512 -104.716307 94 6198ft 7kts
20-Aug-18 12:43 38.815361 -104.715915 180 6199ft 101kts
20-Aug-18 12:44 38.773094 -104.715744 177 6925ft 181kts
20-Aug-18 12:45 38.720075 -104.714494 182 8712ft 209kts
20-Aug-18 12:46 38.657962 -104.713136 181 11222ft 223kts
20-Aug-18 12:47 38.593011 -104.688511 144 12671ft 279kts
20-Aug-18 12:48 38.526624 -104.629696 147 14461ft 308kts
20-Aug-18 12:49 38.449866 -104.563614 147 15585ft 360kts
20-Aug-18 12:50 38.360767 -104.489209 158 16560ft 405kts
20-Aug-18 12:51 38.264099 -104.524396 237 18776ft 380kts
20-Aug-18 12:52 38.272182 -104.647715 304 20505ft 380kts
20-Aug-18 12:53 38.311930 -104.769919 278 22074ft 387kts
20-Aug-18 12:54 38.323143 -104.907273 275 23581ft 394kts
20-Aug-18 12:55 38.332146 -105.047273 274 24878ft 401kts
20-Aug-18 12:56 38.340622 -105.189996 274 26045ft 408kts
20-Aug-18 12:57 38.349260 -105.334715 275 27127ft 412kts
20-Aug-18 12:58 38.364027 -105.480240 275 28062ft 416kts
20-Aug-18 12:59 38.373578 -105.627680 275 28917ft 421kts
20-Aug-18 13:00 38.381924 -105.772129 274 29710ft 425kts
20-Aug-18 13:01 38.390945 -105.922681 275 30403ft 430kts
20-Aug-18 13:02 38.400128 -106.076052 275 30401ft 434kts
20-Aug-18 13:03 38.409063 -106.229482 275 30400ft 433kts
20-Aug-18 13:04 38.416326 -106.356656 275 30399ft 431kts
20-Aug-18 13:05 38.424823 -106.508642 275 30392ft 430kts
20-Aug-18 13:06 38.434221 -106.684917 273 30395ft 428kts
20-Aug-18 13:07 38.440412 -106.810335 274 30395ft 427kts
20-Aug-18 13:08 38.448707 -106.960845 276 30368ft 424kts
20-Aug-18 13:09 38.469022 -107.107211 295 30388ft 422kts
20-Aug-18 13:10 38.522279 -107.240183 295 30364ft 422kts
20-Aug-18 13:11 38.571494 -107.375957 292 30322ft 422kts
20-Aug-18 13:12 38.619699 -107.513256 293 30248ft 426kts
20-Aug-18 13:13 38.667996 -107.651250 292 30232ft 428kts
20-Aug-18 13:14 38.715610 -107.790689 292 30237ft 430kts
20-Aug-18 13:15 38.764119 -107.930997 292 30193ft 433kts
20-Aug-18 13:16 38.812877 -108.072109 293 30173ft 435kts
20-Aug-18 13:17 38.862316 -108.213311 292 30171ft 436kts
20-Aug-18 13:18 38.911346 -108.355730 292 30162ft 437kts
20-Aug-18 13:19 38.960077 -108.498289 291 30151ft 437kts
20-Aug-18 13:20 39.008935 -108.641297 291 30149ft 437kts
20-Aug-18 13:21 39.058725 -108.781808 295 30155ft 439kts
20-Aug-18 13:22 39.113761 -108.920905 292 30156ft 437kts
20-Aug-18 13:23 39.169782 -109.059682 294 30150ft 438kts
20-Aug-18 13:24 39.226508 -109.198343 294 30152ft 439kts
20-Aug-18 13:25 39.283351 -109.337895 294 30129ft 440kts
20-Aug-18 13:26 39.340095 -109.477827 294 30105ft 441kts
20-Aug-18 13:27 39.396586 -109.617754 294 30103ft 441kts
20-Aug-18 13:28 39.451152 -109.755757 293 30112ft 441kts
20-Aug-18 13:29 39.507327 -109.896808 293 30110ft 442kts
20-Aug-18 13:30 39.563585 -110.038226 293 30179ft 442kts
20-Aug-18 13:31 39.619726 -110.179965 293 30036ft 443kts
20-Aug-18 13:32 39.675163 -110.320437 293 28958ft 434kts
20-Aug-18 13:33 39.726117 -110.459126 290 27083ft 424kts
20-Aug-18 13:34 39.772868 -110.597541 290 25105ft 416kts
20-Aug-18 13:35 39.818192 -110.734658 291 24245ft 416kts
20-Aug-18 13:36 39.869823 -110.872354 292 24243ft 431kts
20-Aug-18 13:37 39.924141 -111.013730 292 24242ft 442kts
20-Aug-18 13:38 39.979483 -111.157790 291 24215ft 431kts
20-Aug-18 13:39 40.030558 -111.291466 291 22728ft 403kts
20-Aug-18 13:40 40.079340 -111.419621 291 20914ft 386kts
20-Aug-18 13:41 40.126136 -111.542049 291 19131ft 373kts
20-Aug-18 13:42 40.173010 -111.666209 290 19086ft 393kts
20-Aug-18 13:43 40.222091 -111.798834 291 19086ft 418kts
20-Aug-18 13:44 40.277249 -111.926884 297 18623ft 384kts
20-Aug-18 13:45 40.356493 -112.006989 332 17918ft 363kts
20-Aug-18 13:46 40.442010 -112.065929 335 16644ft 345kts
20-Aug-18 13:47 40.538932 -112.061523 358 15139ft 350kts
20-Aug-18 13:48 40.634489 -112.061856 355 13778ft 341kts
20-Aug-18 13:49 40.728240 -112.061824 356 12421ft 334kts
20-Aug-18 13:50 40.819909 -112.064421 350 11153ft 323kts
20-Aug-18 13:51 40.901027 -112.075163 350 10885ft 274kts
20-Aug-18 13:52 40.976350 -112.085493 350 9761ft 271kts
20-Aug-18 13:53 41.027190 -112.034134 101 8567ft 252kts
20-Aug-18 13:54 40.979192 -111.995775 178 6918ft 221kts
20-Aug-18 13:55 40.921087 -111.990104 176 6026ft 188kts
20-Aug-18 13:56 40.878378 -111.984952 177 5662ft 141kts
20-Aug-18 13:57 40.840372 -111.980700 175 4899ft 135kts
20-Aug-18 13:58 40.802263 -111.976308 176 4250ft 131kts
20-Aug-18 13:59 40.786474 -111.974862 224 4239ft 11kts
20-Aug-18 14:00 40.786290 -111.975918 263 4239ft 0kts
20-Aug-18 14:01 40.788393 -111.976902 354 4239ft 13kts
20-Aug-18 14:02 40.792065 -111.977336 354 4239ft 13kts
20-Aug-18 14:03 40.795367 -111.977706 355 4239ft 9kts
20-Aug-18 14:04 40.798326 -111.978051 354 4239ft 10kts
20-Aug-18 14:05 40.800486 -111.979344 265 4239ft 9kts
20-Aug-18 14:06 40.802395 -111.980758 344 4239ft 10kts
20-Aug-18 14:07 40.805207 -111.981239 350 4239ft 8kts
20-Aug-18 14:08 40.805728 -111.982532 182 4239ft 3kts
20-Aug-18 14:09 40.805416 -111.982517 176 4239ft 1kts
20-Aug-18 14:10 40.805368 -111.982513 176 4239ft 0kts
20-Aug-18 14:11 40.805368 -111.982513 176 4239ft 0kts
20-Aug-18 14:12 40.805368 -111.982513 176 4239ft 0kts

Navigation Log

Ident Type
Flight plan parsing failed, navigation log unavailable